Time;durP1;ratioP1;P1;durP2;ratioP2;P2;SDS_P1;SDS_P2;PMS_P1;PMS_P2;Temp;Humidity;BMP_temperature;BMP_pressure;BME280_temperature;BME280_humidity;BME280_pressure;Samples;Min_cycle;Max_cycle;Signal;HPM_P1;HPM_P2
2024/01/14 00:04:32;;;;;;;1.65;0.75;;;7.10;99.90;;;;;;10535529;28;20856;-64
2024/01/14 00:09:34;;;;;;;0.65;0.63;;;7.30;99.90;;;;;;10537626;27;20071;-64
2024/01/14 00:14:38;;;;;;;0.28;0.28;;;7.20;99.90;;;;;;10538949;28;20056;-64
2024/01/14 00:19:40;;;;;;;1.85;1.75;;;7.10;99.90;;;;;;10537879;28;20082;-65
2024/01/14 00:24:42;;;;;;;0.60;0.60;;;7.70;99.90;;;;;;10541025;28;20062;-65
2024/01/14 00:29:45;;;;;;;0.88;0.88;;;7.40;99.90;;;;;;10544481;27;20124;-65
2024/01/14 00:34:48;;;;;;;0.55;0.55;;;7.40;99.90;;;;;;10543455;28;20055;-65
2024/01/14 00:39:49;;;;;;;0.10;0.10;;;7.70;99.90;;;;;;10549495;27;20047;-65
2024/01/14 00:44:53;;;;;;;0.70;0.70;;;7.70;99.90;;;;;;10544945;27;20079;-65
2024/01/14 00:49:55;;;;;;;0.40;0.40;;;7.50;99.90;;;;;;10541241;28;20047;-66
2024/01/14 00:54:57;;;;;;;0.82;0.82;;;7.00;99.90;;;;;;10543112;28;20066;-65
2024/01/14 01:00:00;;;;;;;0.50;0.50;;;7.20;99.90;;;;;;10543124;28;20055;-64
2024/01/14 01:05:02;;;;;;;0.38;0.38;;;7.10;99.90;;;;;;10545765;27;20134;-65
2024/01/14 01:10:06;;;;;;;0.50;0.50;;;7.30;99.90;;;;;;10542768;28;20047;-65
2024/01/14 01:15:10;;;;;;;0.95;0.95;;;8.10;99.90;;;;;;10540738;27;20142;-65
2024/01/14 01:20:13;;;;;;;0.43;0.43;;;7.70;99.90;;;;;;10544822;28;20060;-64
2024/01/14 01:25:15;;;;;;;0.50;0.50;;;7.80;99.90;;;;;;10544872;27;20120;-64
2024/01/14 01:30:18;;;;;;;0.22;0.22;;;7.50;99.90;;;;;;10549138;27;20052;-65
2024/01/14 01:35:23;;;;;;;0.30;0.30;;;7.70;99.90;;;;;;10543510;28;20131;-64
2024/01/14 01:40:25;;;;;;;0.10;0.10;;;7.00;99.90;;;;;;10544992;27;20056;-66
2024/01/14 01:45:31;;;;;;;0.10;0.10;;;7.10;99.90;;;;;;10543900;27;20051;-66
2024/01/14 01:50:34;;;;;;;0.10;0.10;;;7.00;99.90;;;;;;10542994;28;20047;-64
2024/01/14 01:55:36;;;;;;;;;;;7.00;99.90;;;;;;10544343;27;20040;-65
2024/01/14 02:00:40;;;;;;;0.10;0.10;;;7.20;99.90;;;;;;10543330;27;19980;-64
2024/01/14 02:05:44;;;;;;;0.20;0.20;;;6.80;99.90;;;;;;10543468;27;20081;-64
2024/01/14 02:10:47;;;;;;;0.10;0.10;;;7.00;99.90;;;;;;10538676;27;20502;-64
2024/01/14 02:15:50;;;;;;;0.20;0.20;;;6.80;99.90;;;;;;10541402;28;20124;-66
2024/01/14 02:20:52;;;;;;;0.20;0.20;;;7.60;99.90;;;;;;10539600;27;20048;-65
2024/01/14 02:25:56;;;;;;;0.20;0.20;;;6.50;99.90;;;;;;10538544;27;20043;-64
2024/01/14 02:30:59;;;;;;;0.10;0.10;;;7.40;99.90;;;;;;10543885;27;20119;-65
2024/01/14 02:36:01;;;;;;;0.10;0.10;;;8.00;99.90;;;;;;10543398;28;20927;-64
2024/01/14 02:41:04;;;;;;;0.10;0.10;;;8.10;99.90;;;;;;10539201;27;20056;-64
2024/01/14 02:46:07;;;;;;;0.10;0.10;;;8.10;99.90;;;;;;10538083;27;20043;-64
2024/01/14 02:51:08;;;;;;;0.10;0.10;;;8.20;99.90;;;;;;10536442;28;20082;-64
2024/01/14 02:56:12;;;;;;;0.20;0.20;;;7.70;99.90;;;;;;10538389;27;20190;-64
2024/01/14 03:01:14;;;;;;;0.15;0.15;;;8.40;99.90;;;;;;10539322;28;20047;-66
2024/01/14 03:06:16;;;;;;;0.38;0.38;;;7.90;99.90;;;;;;10539485;27;20048;-66
2024/01/14 03:11:20;;;;;;;0.20;0.20;;;7.10;99.90;;;;;;10537032;27;20405;-64
2024/01/14 03:16:22;;;;;;;0.10;0.10;;;7.20;99.90;;;;;;10538625;28;20108;-64
2024/01/14 03:21:24;;;;;;;0.10;0.10;;;7.60;99.90;;;;;;10541270;28;20055;-64
2024/01/14 03:26:28;;;;;;;1.08;0.90;;;8.20;99.90;;;;;;10539155;27;20073;-64
2024/01/14 03:31:30;;;;;;;0.10;0.10;;;9.60;99.90;;;;;;10539994;27;20054;-64
2024/01/14 03:36:31;;;;;;;0.68;0.68;;;10.30;99.90;;;;;;10539353;27;20121;-64
2024/01/14 03:41:35;;;;;;;0.10;0.10;;;10.60;99.90;;;;;;10541478;27;20055;-65
2024/01/14 03:46:37;;;;;;;0.10;0.10;;;11.00;99.90;;;;;;10540410;27;20082;-66
2024/01/14 03:51:40;;;;;;;0.10;0.10;;;10.90;99.90;;;;;;10538698;28;20059;-65
2024/01/14 03:56:43;;;;;;;;;;;11.00;99.90;;;;;;10537864;27;20471;-64
2024/01/14 04:15:32;;;;;;;0.10;0.10;;;7.50;99.90;;;;;;10604191;27;20128;-64
2024/01/14 04:20:35;;;;;;;0.10;0.10;;;8.50;99.90;;;;;;10618596;27;20043;-63
2024/01/14 04:25:37;;;;;;;0.30;0.30;;;9.30;99.90;;;;;;10611603;27;20696;-64
2024/01/14 04:30:40;;;;;;;0.10;0.10;;;9.90;99.90;;;;;;10618522;27;20051;-64
2024/01/14 04:35:42;;;;;;;0.10;0.10;;;9.10;99.90;;;;;;10617037;27;20414;-65
2024/01/14 04:40:44;;;;;;;0.10;0.10;;;9.20;99.90;;;;;;10616792;27;20196;-64
2024/01/14 04:45:48;;;;;;;0.10;0.10;;;9.50;99.90;;;;;;10613736;27;20057;-65
2024/01/14 04:50:51;;;;;;;0.35;0.35;;;9.70;99.90;;;;;;10615006;27;20099;-64
2024/01/14 04:55:53;;;;;;;;;;;9.30;99.90;;;;;;10605183;27;20663;-64
2024/01/14 05:00:56;;;;;;;0.10;0.10;;;8.60;99.90;;;;;;10611872;27;19985;-63
2024/01/14 05:05:58;;;;;;;0.20;0.20;;;8.10;99.90;;;;;;10611999;27;20071;-64
2024/01/14 05:11:00;;;;;;;2.65;1.77;;;8.00;99.90;;;;;;10618059;27;20050;-64
2024/01/14 05:16:04;;;;;;;0.20;0.20;;;8.50;99.90;;;;;;10616091;27;20043;-64
2024/01/14 05:21:07;;;;;;;0.88;0.88;;;8.00;99.90;;;;;;10614658;27;20074;-64
2024/01/14 05:26:11;;;;;;;0.10;0.10;;;8.20;99.90;;;;;;10589932;27;20227;-66
2024/01/14 05:31:15;;;;;;;0.15;0.15;;;9.20;99.90;;;;;;10588308;27;20174;-65
2024/01/14 05:36:17;;;;;;;0.30;0.30;;;9.10;99.90;;;;;;10587284;27;20058;-64
2024/01/14 05:41:19;;;;;;;0.10;0.10;;;9.10;99.90;;;;;;10589955;27;20051;-64
2024/01/14 05:46:22;;;;;;;0.90;0.90;;;9.60;99.90;;;;;;10585039;27;20162;-65
2024/01/14 05:51:24;;;;;;;0.17;0.17;;;10.00;99.90;;;;;;10586675;27;20043;-64
2024/01/14 05:56:27;;;;;;;0.20;0.20;;;10.00;99.90;;;;;;10584290;27;20089;-65
2024/01/14 06:01:31;;;;;;;0.30;0.30;;;9.10;99.90;;;;;;10584163;27;20165;-64
2024/01/14 06:06:33;;;;;;;0.15;0.15;;;8.50;99.90;;;;;;10583237;27;20042;-64
2024/01/14 06:11:35;;;;;;;0.15;0.15;;;7.80;99.90;;;;;;10583217;27;20081;-63
2024/01/14 06:16:39;;;;;;;0.55;0.55;;;7.40;99.90;;;;;;10586771;27;20051;-63
2024/01/14 06:21:42;;;;;;;0.22;0.22;;;8.40;99.90;;;;;;10584876;27;20770;-63
2024/01/14 06:26:44;;;;;;;0.30;0.30;;;8.00;99.90;;;;;;10583734;27;20418;-64
2024/01/14 06:31:48;;;;;;;0.20;0.20;;;7.90;99.90;;;;;;10582741;27;20062;-63
2024/01/14 06:36:50;;;;;;;0.20;0.20;;;7.10;99.90;;;;;;10577800;27;20043;-63
2024/01/14 06:41:52;;;;;;;0.40;0.40;;;8.70;99.90;;;;;;10581687;27;20106;-63
2024/01/14 06:46:56;;;;;;;0.10;0.10;;;9.00;99.90;;;;;;10583688;27;20051;-64
2024/01/14 06:51:58;;;;;;;0.30;0.30;;;9.60;99.90;;;;;;10583324;27;20067;-64
2024/01/14 06:57:00;;;;;;;0.55;0.55;;;10.30;99.90;;;;;;10583176;27;20055;-64
2024/01/14 07:02:04;;;;;;;12.53;4.50;;;9.90;99.90;;;;;;10580576;27;20047;-64
2024/01/14 07:07:06;;;;;;;0.88;0.88;;;9.50;99.90;;;;;;10578404;27;20413;-63
2024/01/14 07:12:08;;;;;;;0.13;0.13;;;8.60;99.90;;;;;;10576740;27;20091;-65
2024/01/14 07:17:11;;;;;;;0.10;0.10;;;8.50;99.90;;;;;;10579187;27;20060;-62
2024/01/14 07:22:13;;;;;;;0.20;0.20;;;7.30;99.90;;;;;;10571954;27;20162;-63
2024/01/14 07:27:16;;;;;;;0.10;0.10;;;7.50;99.90;;;;;;10588642;27;20606;-63
2024/01/14 07:32:19;;;;;;;0.55;0.55;;;8.40;99.90;;;;;;10574157;27;20043;-63
2024/01/14 07:37:21;;;;;;;;;;;7.80;99.90;;;;;;10578793;27;20884;-63
2024/01/14 07:42:23;;;;;;;0.10;0.10;;;8.70;99.90;;;;;;10580156;27;20411;-63
2024/01/14 07:47:26;;;;;;;0.20;0.20;;;7.70;99.90;;;;;;10575398;27;20884;-63
2024/01/14 07:52:28;;;;;;;0.10;0.10;;;8.80;99.90;;;;;;10574445;27;20051;-63
2024/01/14 07:57:30;;;;;;;0.17;0.17;;;8.80;99.90;;;;;;10576013;27;20645;-63
2024/01/14 08:02:34;;;;;;;0.17;0.17;;;7.80;99.90;;;;;;10571846;27;20130;-63
2024/01/14 08:07:36;;;;;;;0.10;0.10;;;9.40;99.90;;;;;;10579419;27;20051;-63
2024/01/14 08:12:38;;;;;;;0.15;0.15;;;9.50;99.90;;;;;;10578096;27;20094;-63
2024/01/14 08:17:41;;;;;;;0.20;0.20;;;8.30;99.90;;;;;;10580639;27;20047;-64
2024/01/14 08:22:43;;;;;;;0.17;0.17;;;8.10;99.90;;;;;;10572987;27;21027;-64
2024/01/14 08:27:45;;;;;;;0.10;0.10;;;7.20;99.90;;;;;;10569184;27;20078;-63
2024/01/14 08:32:49;;;;;;;0.40;0.40;;;7.70;99.90;;;;;;10577512;27;20568;-63
2024/01/14 08:37:51;;;;;;;0.30;0.30;;;7.00;99.90;;;;;;10573250;27;20152;-63
2024/01/14 08:42:53;;;;;;;0.32;0.32;;;7.50;99.90;;;;;;10576695;27;20693;-62
2024/01/14 08:47:56;;;;;;;0.20;0.20;;;7.50;99.90;;;;;;10571483;27;20073;-63
2024/01/14 08:52:58;;;;;;;;;;;7.20;99.90;;;;;;10581350;27;20058;-63
2024/01/14 08:58:00;;;;;;;0.20;0.20;;;7.00;99.90;;;;;;10573266;27;20561;-63
2024/01/14 09:03:04;;;;;;;0.40;0.40;;;7.20;99.90;;;;;;10580363;27;20078;-63
2024/01/14 09:08:06;;;;;;;0.17;0.17;;;6.80;99.90;;;;;;10577243;27;20693;-63
2024/01/14 09:13:08;;;;;;;0.10;0.10;;;8.00;99.90;;;;;;10577764;27;20505;-63
2024/01/14 09:18:12;;;;;;;0.10;0.10;;;9.00;99.90;;;;;;10586054;27;20143;-63
2024/01/14 09:23:14;;;;;;;0.20;0.20;;;8.10;99.90;;;;;;10583591;27;20043;-63
2024/01/14 09:28:16;;;;;;;0.10;0.10;;;8.60;99.90;;;;;;10584603;27;20138;-63
2024/01/14 09:33:19;;;;;;;0.70;0.70;;;8.70;99.90;;;;;;10576027;27;20050;-64
2024/01/14 09:38:21;;;;;;;0.10;0.10;;;9.00;99.90;;;;;;10578201;27;20158;-64
2024/01/14 09:43:25;;;;;;;0.10;0.10;;;10.80;99.90;;;;;;10582141;27;20051;-65
2024/01/14 09:48:29;;;;;;;0.00;0.00;;;11.60;99.90;;;;;;10575049;27;20119;-64
2024/01/14 09:53:31;;;;;;;0.10;0.10;;;11.40;99.90;;;;;;10577520;27;20070;-65
2024/01/14 09:58:34;;;;;;;0.10;0.10;;;11.70;99.90;;;;;;10581192;27;20043;-65
2024/01/14 10:03:37;;;;;;;0.20;0.20;;;12.30;99.90;;;;;;10578733;27;20571;-63
2024/01/14 10:08:39;;;;;;;1.27;0.85;;;11.20;99.90;;;;;;10578243;27;20533;-63
2024/01/14 10:13:41;;;;;;;1.55;1.45;;;11.30;99.90;;;;;;10577112;27;20055;-64
2024/01/14 10:18:45;;;;;;;0.10;0.10;;;10.60;99.90;;;;;;10579793;27;20057;-65
2024/01/14 10:23:47;;;;;;;0.43;0.43;;;9.10;99.90;;;;;;10580191;27;20869;-65
2024/01/14 10:28:49;;;;;;;0.10;0.10;;;8.00;99.90;;;;;;10578884;27;20520;-66
2024/01/14 10:33:52;;;;;;;0.20;0.20;;;7.80;99.90;;;;;;10582975;27;20050;-64
2024/01/14 10:38:56;;;;;;;0.20;0.20;;;7.80;99.90;;;;;;10580923;27;20055;-64
2024/01/14 10:43:58;;;;;;;0.10;0.10;;;8.00;99.90;;;;;;10592450;27;20100;-65
2024/01/14 10:49:07;;;;;;;0.13;0.13;;;7.90;99.90;;;;;;10590974;27;23073;-66
2024/01/14 10:54:17;;;;;;;0.20;0.20;;;7.20;99.90;;;;;;10589692;27;20907;-64
2024/01/14 10:59:23;;;;;;;0.10;0.10;;;7.20;99.90;;;;;;10605428;27;20047;-66
2024/01/14 11:04:27;;;;;;;0.43;0.43;;;7.50;99.90;;;;;;10588566;27;20046;-66
2024/01/14 11:09:32;;;;;;;0.15;0.15;;;8.30;99.90;;;;;;10582736;27;20078;-63
2024/01/14 11:14:45;;;;;;;0.10;0.10;;;8.70;99.90;;;;;;10583048;27;20046;-63
2024/01/14 11:19:50;;;;;;;0.10;0.10;;;7.80;99.90;;;;;;10579932;27;20055;-64
2024/01/14 11:24:53;;;;;;;0.30;0.30;;;8.60;99.90;;;;;;10573498;27;20054;-64
2024/01/14 11:29:54;;;;;;;0.10;0.10;;;8.30;99.90;;;;;;10578315;27;20622;-64
2024/01/14 11:34:59;;;;;;;0.15;0.15;;;7.60;99.90;;;;;;10577494;27;20082;-64
2024/01/14 11:40:11;;;;;;;0.10;0.10;;;6.90;99.90;;;;;;10580491;27;20035;-64
2024/01/14 11:45:14;;;;;;;28.38;1.48;;;6.80;99.90;;;;;;10580025;27;20047;-67
2024/01/14 11:50:19;;;;;;;6.72;1.50;;;6.50;99.90;;;;;;10579013;27;20039;-64
2024/01/14 11:55:26;;;;;;;5.47;1.60;;;6.50;99.90;;;;;;10578941;27;20067;-65
2024/01/14 12:00:28;;;;;;;6.97;1.88;;;7.40;99.90;;;;;;10577925;27;20043;-64
2024/01/14 12:05:32;;;;;;;2.28;1.48;;;7.10;99.90;;;;;;10576214;27;20162;-64
2024/01/14 12:10:35;;;;;;;6.82;1.92;;;7.40;99.90;;;;;;10582212;27;20164;-64
2024/01/14 12:15:37;;;;;;;4.77;1.60;;;7.30;99.90;;;;;;10574656;27;20070;-64
2024/01/14 12:20:40;;;;;;;7.45;2.20;;;6.80;99.90;;;;;;10576552;27;20127;-62
2024/01/14 12:25:42;;;;;;;12.55;2.45;;;7.20;99.90;;;;;;10559844;27;20051;-64
2024/01/14 12:30:44;;;;;;;8.27;1.75;;;7.60;99.90;;;;;;10575254;27;20561;-63
2024/01/14 12:35:48;;;;;;;6.28;2.20;;;8.20;99.90;;;;;;10580806;27;20260;-63
2024/01/14 12:40:50;;;;;;;6.40;1.63;;;6.90;99.90;;;;;;10583167;27;20086;-63
2024/01/14 12:45:52;;;;;;;4.70;1.65;;;6.90;99.90;;;;;;10585409;27;20035;-64
2024/01/14 12:51:00;;;;;;;9.13;1.57;;;7.20;99.90;;;;;;10587880;27;20171;-66
2024/01/14 12:56:09;;;;;;;3.00;1.35;;;7.60;99.90;;;;;;10584996;27;20130;-65
2024/01/14 13:01:12;;;;;;;3.13;1.25;;;7.20;99.90;;;;;;10581918;27;20047;-65
2024/01/14 13:06:15;;;;;;;4.88;1.85;;;7.40;99.90;;;;;;10581483;27;20055;-65
2024/01/14 13:11:17;;;;;;;4.85;1.33;;;8.10;99.90;;;;;;10583116;27;20051;-67
2024/01/14 13:16:19;;;;;;;10.27;1.67;;;8.30;99.90;;;;;;10580303;27;20043;-65
2024/01/14 13:21:23;;;;;;;8.75;1.48;;;8.20;99.90;;;;;;10583298;27;20043;-63
2024/01/14 13:26:26;;;;;;;3.53;1.70;;;7.60;99.90;;;;;;10584198;27;20047;-65
2024/01/14 13:31:28;;;;;;;10.80;2.40;;;7.30;99.90;;;;;;10584543;27;20154;-63
2024/01/14 13:36:31;;;;;;;5.30;1.60;;;7.20;99.90;;;;;;10587321;27;20051;-64
2024/01/14 13:41:35;;;;;;;4.57;1.50;;;7.40;99.90;;;;;;10587133;27;20047;-63
2024/01/14 13:46:37;;;;;;;3.92;1.25;;;7.30;99.90;;;;;;10576861;27;20113;-63
2024/01/14 13:51:41;;;;;;;6.90;1.55;;;7.50;99.90;;;;;;10583876;27;20050;-63
2024/01/14 13:56:43;;;;;;;3.03;1.25;;;7.70;99.90;;;;;;10594694;27;20426;-63
2024/01/14 14:01:45;;;;;;;1.58;0.73;;;7.40;99.90;;;;;;10593704;27;20437;-63
2024/01/14 14:06:48;;;;;;;2.90;0.82;;;7.40;99.90;;;;;;10590900;27;20047;-64
2024/01/14 14:11:50;;;;;;;3.20;0.82;;;7.40;99.90;;;;;;10588037;27;20572;-63
2024/01/14 14:16:53;;;;;;;4.65;0.85;;;8.00;99.90;;;;;;10583071;27;20097;-63
2024/01/14 14:21:58;;;;;;;11.73;1.17;;;9.30;99.90;;;;;;10583213;27;20046;-63
2024/01/14 14:27:00;;;;;;;6.32;0.90;;;10.40;99.90;;;;;;10580290;27;20109;-63
2024/01/14 14:32:02;;;;;;;4.43;0.65;;;8.60;99.90;;;;;;10580487;27;20054;-63
2024/01/14 14:37:05;;;;;;;2.70;0.90;;;9.30;99.90;;;;;;10581627;27;20047;-63
2024/01/14 14:42:08;;;;;;;4.32;1.13;;;10.20;99.90;;;;;;10576375;27;20849;-63
2024/01/14 14:47:10;;;;;;;10.67;0.67;;;10.40;99.90;;;;;;10584576;27;20055;-63
2024/01/14 14:52:13;;;;;;;3.08;0.90;;;10.30;99.90;;;;;;10584349;27;20649;-62
2024/01/14 14:57:15;;;;;;;3.45;1.05;;;9.90;99.90;;;;;;10578042;27;20889;-63
2024/01/14 15:02:17;;;;;;;4.70;0.95;;;9.50;99.90;;;;;;10583478;27;20047;-64
2024/01/14 15:07:21;;;;;;;4.97;1.02;;;8.20;99.90;;;;;;10579768;27;20040;-64
2024/01/14 15:12:23;;;;;;;3.78;1.35;;;7.60;99.90;;;;;;10583696;27;20062;-64
2024/01/14 15:17:25;;;;;;;1.60;1.00;;;9.30;99.90;;;;;;10588011;27;22649;-66
2024/01/14 15:22:28;;;;;;;3.85;1.08;;;8.80;99.90;;;;;;10586135;27;20188;-64
2024/01/14 15:27:30;;;;;;;7.57;1.02;;;8.30;99.90;;;;;;10583416;27;20039;-65
2024/01/14 15:32:32;;;;;;;8.48;0.80;;;7.10;99.90;;;;;;10581604;27;20065;-64
2024/01/14 15:37:35;;;;;;;3.30;0.50;;;7.50;99.90;;;;;;10582449;27;20806;-65
2024/01/14 15:42:37;;;;;;;4.32;1.17;;;8.40;99.90;;;;;;10581517;27;20455;-66
2024/01/14 15:47:41;;;;;;;4.20;0.75;;;7.00;99.90;;;;;;10579907;27;20094;-65
2024/01/14 15:52:44;;;;;;;0.85;0.77;;;8.20;99.90;;;;;;10583572;27;20058;-65
2024/01/14 15:57:46;;;;;;;3.15;1.15;;;7.30;99.90;;;;;;10583843;27;20127;-63
2024/01/14 16:02:48;;;;;;;0.10;0.10;;;7.40;99.90;;;;;;10583804;27;20062;-65
2024/01/14 16:07:52;;;;;;;0.17;0.17;;;7.00;99.90;;;;;;10583342;27;20054;-64
2024/01/14 16:12:54;;;;;;;0.20;0.20;;;7.80;99.90;;;;;;10579149;27;20815;-64
2024/01/14 16:17:57;;;;;;;0.20;0.20;;;7.90;99.90;;;;;;10574791;27;20101;-65
2024/01/14 16:23:00;;;;;;;0.10;0.10;;;7.10;99.90;;;;;;10576829;27;20192;-65
2024/01/14 16:28:02;;;;;;;;;;;7.50;99.90;;;;;;10577158;27;20050;-64
2024/01/14 16:33:06;;;;;;;0.20;0.20;;;7.80;99.90;;;;;;10576386;27;19924;-64
2024/01/14 16:38:10;;;;;;;0.20;0.20;;;7.90;99.90;;;;;;10580180;27;20682;-64
2024/01/14 16:43:12;;;;;;;0.17;0.17;;;8.40;99.90;;;;;;10578626;27;20058;-64
2024/01/14 16:48:13;;;;;;;0.40;0.40;;;7.70;99.90;;;;;;10578177;27;20043;-65
2024/01/14 16:53:18;;;;;;;0.10;0.10;;;7.50;99.90;;;;;;10582982;27;20104;-64
2024/01/14 16:58:20;;;;;;;0.10;0.10;;;6.70;99.90;;;;;;10576628;27;20083;-64
2024/01/14 17:03:22;;;;;;;0.10;0.10;;;6.70;99.90;;;;;;10580720;27;20148;-64
2024/01/14 17:08:26;;;;;;;0.13;0.13;;;7.40;99.90;;;;;;10582353;27;20050;-64
2024/01/14 17:13:28;;;;;;;0.70;0.70;;;8.20;99.90;;;;;;10580617;27;20066;-64
2024/01/14 17:18:30;;;;;;;0.20;0.20;;;7.50;99.90;;;;;;10590339;27;20050;-64
2024/01/14 17:23:33;;;;;;;0.20;0.20;;;7.30;99.90;;;;;;10597872;27;20062;-63
2024/01/14 17:28:37;;;;;;;;;;;7.20;99.90;;;;;;10593647;27;20057;-64
2024/01/14 17:33:39;;;;;;;0.25;0.25;;;6.60;99.90;;;;;;10592345;27;19930;-64
2024/01/14 17:38:44;;;;;;;0.10;0.10;;;7.80;99.90;;;;;;10590880;27;20047;-64
2024/01/14 17:43:46;;;;;;;0.20;0.20;;;7.70;99.90;;;;;;10588328;27;20359;-64
2024/01/14 17:48:48;;;;;;;0.10;0.10;;;7.00;99.90;;;;;;10586346;27;20057;-64
2024/01/14 17:53:52;;;;;;;0.20;0.20;;;8.10;99.90;;;;;;10586025;27;20047;-65
2024/01/14 17:58:54;;;;;;;0.20;0.20;;;6.80;99.90;;;;;;10589712;27;20494;-64
2024/01/14 18:03:56;;;;;;;4.70;1.27;;;6.60;99.90;;;;;;10590597;27;20561;-64
2024/01/14 18:09:00;;;;;;;4.07;1.38;;;6.00;99.90;;;;;;10586920;27;20051;-64
2024/01/14 18:14:02;;;;;;;8.73;1.63;;;5.60;99.90;;;;;;10586496;27;20081;-64
2024/01/14 18:19:04;;;;;;;1.65;0.95;;;6.30;99.90;;;;;;10587219;27;20107;-65
2024/01/14 18:24:08;;;;;;;0.10;0.10;;;6.00;99.90;;;;;;10584423;27;20035;-63
2024/01/14 18:29:10;;;;;;;0.10;0.10;;;5.70;99.90;;;;;;10585501;27;20047;-65
2024/01/14 18:34:12;;;;;;;0.20;0.20;;;5.40;99.90;;;;;;10586795;27;20043;-65
2024/01/14 18:39:16;;;;;;;0.22;0.22;;;5.90;99.90;;;;;;10586535;27;20055;-62
2024/01/14 18:44:18;;;;;;;6.53;1.33;;;5.50;99.90;;;;;;10586815;27;20550;-63
2024/01/14 18:49:20;;;;;;;8.80;1.00;;;5.50;99.90;;;;;;10587112;27;20054;-64
2024/01/14 18:54:23;;;;;;;13.43;2.13;;;5.40;99.90;;;;;;10582847;27;20044;-64
2024/01/14 18:59:26;;;;;;;6.25;1.30;;;5.40;99.90;;;;;;10580908;27;20058;-64
2024/01/14 19:04:28;;;;;;;5.00;2.08;;;5.80;99.90;;;;;;10585915;27;20490;-64
2024/01/14 19:09:32;;;;;;;8.38;2.13;;;5.70;99.90;;;;;;10584909;27;20180;-64
2024/01/14 19:14:34;;;;;;;9.52;1.35;;;5.90;99.90;;;;;;10586652;27;20058;-65
2024/01/14 19:19:36;;;;;;;8.75;1.55;;;5.90;99.90;;;;;;10586164;27;20484;-63
2024/01/14 19:24:43;;;;;;;6.03;1.10;;;5.90;99.90;;;;;;10584047;27;20400;-64
2024/01/14 19:29:46;;;;;;;0.20;0.20;;;5.90;99.90;;;;;;10587011;27;20051;-64
2024/01/14 19:34:48;;;;;;;0.20;0.20;;;5.00;99.90;;;;;;10582820;27;20047;-65
2024/01/14 19:39:51;;;;;;;0.28;0.28;;;5.30;99.90;;;;;;10585571;27;20051;-64
2024/01/14 19:44:56;;;;;;;0.20;0.20;;;4.50;99.90;;;;;;10579265;27;20410;-64
2024/01/14 19:49:58;;;;;;;0.28;0.28;;;5.10;99.90;;;;;;10584516;27;20082;-64
2024/01/14 19:55:03;;;;;;;0.30;0.30;;;5.00;99.90;;;;;;10573148;27;20039;-64
2024/01/14 20:00:09;;;;;;;0.20;0.20;;;5.00;99.90;;;;;;10581060;27;20065;-64
2024/01/14 20:05:11;;;;;;;0.20;0.20;;;5.40;99.90;;;;;;10583166;27;21263;-62
2024/01/14 20:10:15;;;;;;;0.20;0.20;;;5.90;99.90;;;;;;10577566;27;20043;-67
2024/01/14 20:15:17;;;;;;;0.17;0.17;;;5.70;99.90;;;;;;10579527;27;20047;-66
2024/01/14 20:20:19;;;;;;;0.20;0.20;;;5.20;99.90;;;;;;10584698;27;20882;-66
2024/01/14 20:25:25;;;;;;;0.60;0.60;;;4.80;99.90;;;;;;10585795;27;20047;-67
2024/01/14 20:30:28;;;;;;;0.30;0.30;;;5.40;99.90;;;;;;10570564;27;20062;-66
2024/01/14 20:35:30;;;;;;;0.10;0.10;;;4.50;99.90;;;;;;10579084;27;20135;-67
2024/01/14 20:40:37;;;;;;;0.10;0.10;;;5.40;99.90;;;;;;10577778;27;20133;-66
2024/01/14 20:45:40;;;;;;;0.20;0.20;;;5.70;99.90;;;;;;10579668;27;20047;-67
2024/01/14 20:50:42;;;;;;;0.20;0.20;;;5.60;99.90;;;;;;10577442;27;20424;-67
2024/01/14 20:55:45;;;;;;;0.20;0.20;;;5.40;99.90;;;;;;10581342;27;20430;-66
2024/01/14 21:00:48;;;;;;;0.17;0.17;;;6.30;99.90;;;;;;10587714;27;20056;-67
2024/01/14 21:05:55;;;;;;;0.10;0.10;;;7.20;99.90;;;;;;10587240;27;20136;-67
2024/01/14 21:11:02;;;;;;;0.10;0.10;;;6.20;99.90;;;;;;10588629;27;20066;-67
2024/01/14 21:16:04;;;;;;;0.20;0.20;;;5.70;99.90;;;;;;10589033;27;20543;-67
2024/01/14 21:21:09;;;;;;;1.38;1.27;;;6.70;99.90;;;;;;10585889;27;20754;-67
2024/01/14 21:26:12;;;;;;;0.47;0.47;;;7.10;99.90;;;;;;10586992;27;20114;-67
2024/01/14 21:31:14;;;;;;;;;;;5.40;99.90;;;;;;10586327;27;20055;-66
2024/01/14 21:36:16;;;;;;;0.20;0.20;;;5.90;99.90;;;;;;10578048;27;19923;-66
2024/01/14 21:41:19;;;;;;;0.20;0.20;;;6.60;99.90;;;;;;10588426;27;20434;-66
2024/01/14 21:46:21;;;;;;;2.20;2.00;;;5.70;99.90;;;;;;10584837;27;20572;-66
2024/01/14 21:51:26;;;;;;;0.20;0.20;;;6.80;99.90;;;;;;10590561;27;20046;-66
2024/01/14 21:56:29;;;;;;;0.40;0.40;;;5.40;99.90;;;;;;10591136;27;20123;-66
2024/01/14 22:01:31;;;;;;;0.15;0.15;;;5.50;99.90;;;;;;10591475;27;20061;-67
2024/01/14 22:06:34;;;;;;;0.20;0.20;;;5.50;99.90;;;;;;10588011;27;20804;-67
2024/01/14 22:11:38;;;;;;;0.30;0.30;;;5.00;99.90;;;;;;10593253;27;20063;-65
2024/01/14 22:16:40;;;;;;;0.20;0.20;;;5.20;99.90;;;;;;10587740;27;20474;-66
2024/01/14 22:21:42;;;;;;;0.27;0.27;;;5.60;99.90;;;;;;10589058;27;20075;-66
2024/01/14 22:26:46;;;;;;;0.20;0.20;;;5.90;99.90;;;;;;10587094;27;20050;-66
2024/01/14 22:31:47;;;;;;;;;;;6.10;99.90;;;;;;10589281;27;20051;-67
2024/01/14 22:36:50;;;;;;;0.30;0.30;;;7.40;99.90;;;;;;10586886;27;19923;-66
2024/01/14 22:41:53;;;;;;;0.40;0.40;;;7.00;99.90;;;;;;10588562;27;20054;-65
2024/01/14 22:46:55;;;;;;;;;;;7.40;99.90;;;;;;10571344;27;20401;-66
2024/01/14 22:51:57;;;;;;;0.10;0.10;;;7.80;99.90;;;;;;10585269;27;19927;-65
2024/01/14 22:57:00;;;;;;;1.17;1.17;;;8.50;99.90;;;;;;10589222;27;20395;-64
2024/01/14 23:02:05;;;;;;;;;;;6.70;99.90;;;;;;10589789;27;20494;-67
2024/01/14 23:07:07;;;;;;;3.83;1.05;;;6.40;99.90;;;;;;10595923;27;19919;-65
2024/01/14 23:12:11;;;;;;;0.20;0.20;;;5.30;99.90;;;;;;10589466;27;20108;-66
2024/01/14 23:17:13;;;;;;;0.47;0.47;;;6.20;99.90;;;;;;10586192;27;20047;-64
2024/01/14 23:22:15;;;;;;;0.20;0.20;;;5.80;99.90;;;;;;10584076;27;20334;-67
2024/01/14 23:27:18;;;;;;;0.10;0.10;;;5.90;99.90;;;;;;10588425;27;20054;-67
2024/01/14 23:32:22;;;;;;;0.20;0.20;;;6.10;99.90;;;;;;10579512;27;20074;-67
2024/01/14 23:37:24;;;;;;;0.17;0.17;;;5.40;99.90;;;;;;10582348;27;20062;-65
2024/01/14 23:42:27;;;;;;;0.20;0.20;;;5.70;99.90;;;;;;10582561;27;20070;-67
2024/01/14 23:47:29;;;;;;;;;;;5.40;99.90;;;;;;10582632;27;20117;-65
2024/01/14 23:52:31;;;;;;;2.90;0.98;;;5.50;99.90;;;;;;10579567;27;19979;-67
2024/01/14 23:57:34;;;;;;;10.45;2.13;;;5.90;99.90;;;;;;10580008;27;20055;-66
